Borba Airport


Codes: SWBR/RBB
Name: Borba Airport
City: Borba
Country: Brazil
Elevation: 293 ft.

Photos at Borba Airport


   Photos courtesy of SpottingLog. You can add your own sightings and photos by signing up for a free trial today.



No photos found.

Weather at Borba Airport


Time (UTC)DescriptionTempratureWindCloud coverageVisibilityPressureHumidity
21-Jun-2024 12:00Broken Clouds28°C0 mph, SE75%10000m1012hPa60%
21-Jun-2024 15:00Broken Clouds30°C2 mph, E61%10000m1012hPa54%
21-Jun-2024 18:00Scattered Clouds33°C2 mph, E46%10000m1009hPa42%
21-Jun-2024 21:00Broken Clouds30°C2 mph, SE55%10000m1007hPa57%
22-Jun-2024 00:00Broken Clouds28°C2 mph, N84%10000m1009hPa61%
22-Jun-2024 03:00Broken Clouds26°C2 mph, N51%10000m1010hPa67%
22-Jun-2024 06:00Broken Clouds26°C2 mph, NE55%10000m1009hPa69%
22-Jun-2024 09:00Overcast Clouds24°C2 mph, NE89%10000m1010hPa78%
22-Jun-2024 12:00Overcast Clouds27°C2 mph, E92%10000m1012hPa66%
22-Jun-2024 15:00Overcast Clouds34°C2 mph, NE91%10000m1011hPa41%
22-Jun-2024 18:00Broken Clouds36°C4 mph, E80%10000m1008hPa32%
22-Jun-2024 21:00Overcast Clouds32°C2 mph, NE98%10000m1007hPa50%
23-Jun-2024 00:00Broken Clouds27°C2 mph, NE57%10000m1009hPa57%
23-Jun-2024 03:00Overcast Clouds26°C2 mph, NE90%10000m1010hPa62%
23-Jun-2024 06:00Broken Clouds24°C2 mph, NE63%10000m1009hPa71%
23-Jun-2024 09:00Overcast Clouds23°C2 mph, NE93%10000m1010hPa76%
23-Jun-2024 12:00Broken Clouds27°C2 mph, NE83%10000m1012hPa67%
23-Jun-2024 15:00Few Clouds34°C4 mph, NE17%10000m1011hPa46%
23-Jun-2024 18:00Few Clouds36°C4 mph, E17%10000m1008hPa36%
23-Jun-2024 21:00Overcast Clouds30°C2 mph, E100%10000m1007hPa62%
24-Jun-2024 00:00Light Rain25°C2 mph, SW86%10000m1010hPa83%
24-Jun-2024 03:00Light Rain24°C2 mph, NW19%10000m1011hPa89%
24-Jun-2024 06:00Clear Sky23°C2 mph, N10%10000m1010hPa90%
24-Jun-2024 09:00Clear Sky23°C2 mph, N2%10000m1010hPa91%
24-Jun-2024 12:00Clear Sky27°C2 mph, N6%10000m1012hPa72%
24-Jun-2024 15:00Clear Sky34°C2 mph, NE3%10000m1012hPa45%
24-Jun-2024 18:00Scattered Clouds33°C2 mph, NE49%10000m1009hPa54%
24-Jun-2024 21:00Broken Clouds29°C7 mph, NE74%10000m1009hPa65%
25-Jun-2024 00:00Broken Clouds25°C2 mph, E61%10000m1011hPa76%
25-Jun-2024 03:00Few Clouds24°C2 mph, NW11%10000m1012hPa85%
25-Jun-2024 06:00Few Clouds24°C0 mph, NW21%10000m1011hPa85%
25-Jun-2024 09:00Scattered Clouds23°C2 mph, NE42%10000m1012hPa88%
25-Jun-2024 12:00Scattered Clouds27°C0 mph, E28%10000m1014hPa70%
25-Jun-2024 15:00Few Clouds33°C4 mph, NE11%10000m1013hPa48%
25-Jun-2024 18:00Scattered Clouds35°C4 mph, E27%10000m1010hPa40%
25-Jun-2024 21:00Broken Clouds31°C2 mph, E65%10000m1009hPa60%
26-Jun-2024 00:00Light Rain24°C2 mph, S71%10000m1012hPa92%
26-Jun-2024 03:00Light Rain23°C4 mph, NE89%10000m1013hPa96%
26-Jun-2024 06:00Overcast Clouds23°C2 mph, N90%10000m1012hPa98%
26-Jun-2024 09:00Overcast Clouds23°C2 mph, N100%10000m1013hPa98%